Time;durP1;ratioP1;P1;durP2;ratioP2;P2;SDS_P1;SDS_P2;PMS_P1;PMS_P2;Temp;Humidity;BMP_temperature;BMP_pressure;BME280_temperature;BME280_humidity;BME280_pressure;Samples;Min_cycle;Max_cycle;Signal;HPM_P1;HPM_P2
2022/09/15 00:00:43;;;;;;;4.73;1.50;;;12.90;99.90;;;;;;5137553;27;20047;-76
2022/09/15 00:03:08;;;;;;;3.42;1.40;;;12.90;99.90;;;;;;5137486;27;20495;-76
2022/09/15 00:05:34;;;;;;;3.33;1.20;;;12.90;99.90;;;;;;5137484;27;20043;-76
2022/09/15 00:08:00;;;;;;;2.47;1.10;;;12.90;99.90;;;;;;5137409;27;20046;-76
2022/09/15 00:10:27;;;;;;;1.92;1.20;;;12.90;99.90;;;;;;5137399;27;20047;-77
2022/09/15 00:12:54;;;;;;;3.65;1.30;;;12.90;99.90;;;;;;5119197;27;20484;-77
2022/09/15 00:15:20;;;;;;;;;;;12.90;99.90;;;;;;5138185;27;20117;-77
2022/09/15 00:17:51;;;;;;;2.88;1.38;;;13.00;99.90;;;;;;5137237;27;20056;-77
2022/09/15 00:20:19;;;;;;;4.00;1.70;;;12.80;99.90;;;;;;5137179;27;20439;-77
2022/09/15 00:22:45;;;;;;;3.05;1.50;;;12.80;99.90;;;;;;5137174;27;20118;-77
2022/09/15 00:25:11;;;;;;;4.25;1.50;;;12.90;99.90;;;;;;5137107;27;20082;-76
2022/09/15 00:27:37;;;;;;;2.65;1.58;;;12.80;99.90;;;;;;5136977;27;20131;-76
2022/09/15 00:30:04;;;;;;;3.88;1.65;;;12.90;99.90;;;;;;5137048;27;20043;-77
2022/09/15 00:32:30;;;;;;;3.95;2.00;;;12.80;99.90;;;;;;5136807;27;20478;-78
2022/09/15 00:34:55;;;;;;;3.70;1.55;;;12.80;99.90;;;;;;5136955;27;20130;-76
2022/09/15 00:37:21;;;;;;;2.72;1.67;;;12.80;99.90;;;;;;5137165;27;20100;-76
2022/09/15 00:39:47;;;;;;;3.90;1.83;;;12.80;99.90;;;;;;5136840;27;20382;-77
2022/09/15 00:42:21;;;;;;;4.20;1.73;;;12.80;99.90;;;;;;5136729;27;20057;-77
2022/09/15 00:44:55;;;;;;;2.92;1.60;;;12.80;99.90;;;;;;5137005;27;20099;-76
2022/09/15 00:47:29;;;;;;;4.55;2.22;;;12.80;99.90;;;;;;5136741;27;20130;-77
2022/09/15 00:50:04;;;;;;;2.78;1.60;;;12.80;99.90;;;;;;5136709;27;20046;-77
2022/09/15 00:52:56;;;;;;;4.03;1.60;;;12.90;99.90;;;;;;5136560;27;20039;-77
2022/09/15 00:55:30;;;;;;;4.13;1.65;;;12.70;99.90;;;;;;5137018;27;20130;-76
2022/09/15 00:58:11;;;;;;;4.03;1.60;;;12.70;99.90;;;;;;5136471;27;20047;-76
2022/09/15 01:00:44;;;;;;;3.33;1.50;;;13.10;99.90;;;;;;5136469;27;20042;-76
2022/09/15 01:03:09;;;;;;;4.75;2.00;;;12.80;99.90;;;;;;5136273;27;20043;-77
2022/09/15 01:05:41;;;;;;;3.27;2.10;;;12.80;99.90;;;;;;5136340;27;20364;-76
2022/09/15 01:08:15;;;;;;;3.40;1.83;;;12.80;99.90;;;;;;5136347;27;20051;-77
2022/09/15 01:10:40;;;;;;;3.00;1.80;;;12.80;99.90;;;;;;5136310;27;20035;-77
2022/09/15 01:13:09;;;;;;;3.77;2.10;;;12.90;99.90;;;;;;5136222;27;20046;-77
2022/09/15 01:16:12;;;;;;;3.97;2.10;;;12.90;99.90;;;;;;5136112;27;20050;-78
2022/09/15 01:18:47;;;;;;;3.25;2.10;;;12.90;99.90;;;;;;5136015;27;20051;-76
2022/09/15 01:21:25;;;;;;;3.83;2.05;;;13.00;99.90;;;;;;5136075;27;20050;-76
2022/09/15 01:23:54;;;;;;;3.00;2.22;;;13.00;99.90;;;;;;5136011;27;20494;-77
2022/09/15 01:26:41;;;;;;;3.47;2.22;;;13.00;99.90;;;;;;5118076;27;20046;-77
2022/09/15 01:29:28;;;;;;;3.90;2.30;;;13.00;99.90;;;;;;5136237;27;20402;-77
2022/09/15 01:35:26;;;;;;;3.67;2.22;;;13.10;99.90;;;;;;5135750;27;20047;-76
2022/09/15 01:38:07;;;;;;;4.22;2.15;;;13.10;99.90;;;;;;5087776;27;20047;-77
2022/09/15 01:40:59;;;;;;;3.22;2.00;;;13.10;99.90;;;;;;5135781;27;20050;-76
2022/09/15 01:43:26;;;;;;;3.30;2.53;;;13.20;99.90;;;;;;5121694;27;20047;-76
2022/09/15 01:45:52;;;;;;;4.22;2.58;;;13.20;99.90;;;;;;5135566;27;20482;-77
2022/09/15 01:48:22;;;;;;;4.40;2.60;;;13.20;99.90;;;;;;5135488;27;20099;-77
2022/09/15 01:50:52;;;;;;;3.10;2.35;;;13.20;99.90;;;;;;5135498;27;20395;-77
2022/09/15 01:53:20;;;;;;;5.15;2.53;;;13.20;99.90;;;;;;5135279;27;20126;-76
2022/09/15 01:55:55;;;;;;;4.70;2.30;;;13.30;99.90;;;;;;5135171;27;20486;-76
2022/09/15 01:58:21;;;;;;;4.38;2.63;;;13.30;99.90;;;;;;5135617;27;20406;-77
2022/09/15 02:00:59;;;;;;;5.73;2.77;;;13.40;99.90;;;;;;5135311;27;20039;-77
2022/09/15 02:03:33;;;;;;;5.20;2.45;;;13.40;99.90;;;;;;5117327;27;20051;-77
2022/09/15 02:06:06;;;;;;;6.93;3.35;;;13.40;99.90;;;;;;5135176;27;20394;-77
2022/09/15 02:09:02;;;;;;;4.60;2.45;;;13.40;99.90;;;;;;5135250;27;20039;-76
2022/09/15 02:11:29;;;;;;;6.05;2.75;;;13.40;99.90;;;;;;5098833;27;20051;-76
2022/09/15 02:14:12;;;;;;;;;;;13.40;99.90;;;;;;5135101;27;20085;-77
2022/09/15 02:16:42;;;;;;;7.25;2.28;;;13.40;99.90;;;;;;5117223;27;19919;-77
2022/09/15 02:19:20;;;;;;;5.45;2.15;;;13.40;99.90;;;;;;5134991;27;20088;-76
2022/09/15 02:21:52;;;;;;;5.72;2.13;;;13.50;99.90;;;;;;5135306;27;20042;-77
2022/09/15 02:24:25;;;;;;;5.72;2.33;;;13.50;99.90;;;;;;5135003;27;20472;-77
2022/09/15 02:26:53;;;;;;;4.78;2.40;;;13.50;99.90;;;;;;5134934;27;20060;-77
2022/09/15 02:29:21;;;;;;;5.32;1.85;;;13.60;99.90;;;;;;5134878;27;20122;-78
2022/09/15 02:31:48;;;;;;;4.38;2.20;;;13.60;99.90;;;;;;5134706;27;20047;-77
2022/09/15 02:34:24;;;;;;;7.25;1.83;;;13.60;99.90;;;;;;5134787;27;20054;-76
2022/09/15 02:36:52;;;;;;;4.43;2.35;;;13.60;99.90;;;;;;5134873;27;20043;-76
2022/09/15 02:39:20;;;;;;;4.50;2.03;;;13.70;99.90;;;;;;5134665;27;20051;-77
2022/09/15 02:41:46;;;;;;;4.57;1.92;;;13.60;99.90;;;;;;5134372;27;20126;-78
2022/09/15 02:44:12;;;;;;;4.80;2.43;;;13.70;99.90;;;;;;5134546;27;20514;-77
2022/09/15 02:46:38;;;;;;;5.45;2.08;;;13.60;99.90;;;;;;5134976;27;20043;-77
2022/09/15 02:49:04;;;;;;;5.97;2.10;;;13.70;99.90;;;;;;5134619;28;20134;-77
2022/09/15 02:51:30;;;;;;;4.63;2.05;;;13.70;99.90;;;;;;5134592;28;20376;-77
2022/09/15 02:53:55;;;;;;;5.20;1.87;;;13.70;99.90;;;;;;5134250;28;20043;-77
2022/09/15 02:56:21;;;;;;;5.80;2.42;;;13.60;99.90;;;;;;5135023;28;20096;-77
2022/09/15 02:58:47;;;;;;;4.78;2.13;;;13.80;99.90;;;;;;5134646;28;20047;-77
2022/09/15 03:01:14;;;;;;;3.25;2.03;;;13.60;99.90;;;;;;5134708;28;20039;-77
2022/09/15 03:03:41;;;;;;;6.38;2.13;;;13.70;99.90;;;;;;5134633;28;20039;-76
2022/09/15 03:06:15;;;;;;;;;;;13.70;99.90;;;;;;5134888;28;20070;-77
2022/09/15 03:08:49;;;;;;;3.92;1.60;;;13.70;99.90;;;;;;5134406;28;19926;-77
2022/09/15 03:11:15;;;;;;;7.20;2.03;;;14.00;99.90;;;;;;5134234;28;20047;-77
2022/09/15 03:13:41;;;;;;;5.50;1.70;;;13.60;99.90;;;;;;5134462;28;20082;-77
2022/09/15 03:16:12;;;;;;;3.50;1.50;;;13.60;99.90;;;;;;5134394;28;20047;-77
2022/09/15 03:18:38;;;;;;;4.80;1.67;;;13.60;99.90;;;;;;5116333;28;20058;-76
2022/09/15 03:21:06;;;;;;;4.15;1.60;;;13.60;99.90;;;;;;5134321;28;20043;-76
2022/09/15 03:23:32;;;;;;;4.15;1.65;;;13.60;99.90;;;;;;5134361;28;20035;-76
2022/09/15 03:26:00;;;;;;;4.30;1.33;;;13.90;99.90;;;;;;5134310;27;20065;-76
2022/09/15 03:28:27;;;;;;;5.68;1.92;;;13.60;99.90;;;;;;5138187;27;20043;-76
2022/09/15 03:30:53;;;;;;;6.13;1.80;;;13.60;99.90;;;;;;5138238;27;20130;-76
2022/09/15 03:33:20;;;;;;;5.03;1.45;;;13.60;99.90;;;;;;5138159;27;20092;-76
2022/09/15 03:35:47;;;;;;;8.52;1.95;;;13.60;99.90;;;;;;5138149;27;20390;-76
2022/09/15 03:38:14;;;;;;;3.97;1.42;;;13.60;99.90;;;;;;5138541;27;20061;-76
2022/09/15 03:40:41;;;;;;;3.47;1.33;;;13.60;99.90;;;;;;5138432;27;20047;-77
2022/09/15 03:43:08;;;;;;;7.43;1.90;;;13.60;99.90;;;;;;5137916;27;20108;-76
2022/09/15 03:45:36;;;;;;;4.03;1.30;;;13.60;99.90;;;;;;5137833;27;20512;-77
2022/09/15 03:48:04;;;;;;;5.45;1.35;;;13.60;99.90;;;;;;5137885;27;20055;-76
2022/09/15 03:50:30;;;;;;;4.82;1.30;;;13.60;99.90;;;;;;5137847;27;20099;-77
2022/09/15 03:52:57;;;;;;;6.13;1.30;;;13.60;99.90;;;;;;5137716;27;20039;-77
2022/09/15 03:55:23;;;;;;;4.07;1.30;;;13.60;99.90;;;;;;5137501;27;20478;-76
2022/09/15 03:57:48;;;;;;;5.13;1.43;;;13.60;99.90;;;;;;5137973;27;20047;-76
2022/09/15 04:00:14;;;;;;;4.60;1.10;;;13.70;99.90;;;;;;5137718;27;20046;-77
2022/09/15 04:02:39;;;;;;;3.47;1.10;;;13.70;99.90;;;;;;5137783;27;20494;-77
2022/09/15 04:05:05;;;;;;;6.43;1.42;;;13.70;99.90;;;;;;5137535;27;20039;-78
2022/09/15 04:07:31;;;;;;;4.45;1.33;;;13.60;99.90;;;;;;5137597;27;20092;-76
2022/09/15 04:09:57;;;;;;;4.47;1.20;;;13.70;99.90;;;;;;5138027;27;20043;-77
2022/09/15 04:12:22;;;;;;;8.00;1.30;;;13.70;99.90;;;;;;5137361;27;20043;-77
2022/09/15 04:14:48;;;;;;;4.88;1.48;;;13.80;99.90;;;;;;5137633;27;20039;-77
2022/09/15 04:17:15;;;;;;;5.40;1.30;;;13.70;99.90;;;;;;5137457;27;20551;-76
2022/09/15 04:19:40;;;;;;;4.72;1.50;;;13.70;99.90;;;;;;5118882;27;20089;-77
2022/09/15 04:22:06;;;;;;;3.88;1.40;;;13.70;99.90;;;;;;5137749;27;20043;-77
2022/09/15 04:24:32;;;;;;;4.88;1.65;;;13.60;99.90;;;;;;5137587;27;20051;-76
2022/09/15 04:26:57;;;;;;;5.88;1.55;;;13.70;99.90;;;;;;5137159;27;20539;-77
2022/09/15 04:29:23;;;;;;;7.90;1.75;;;13.70;99.90;;;;;;5137133;27;20043;-77
2022/09/15 04:31:49;;;;;;;5.93;1.65;;;13.60;99.90;;;;;;5137130;27;20043;-76
2022/09/15 04:34:15;;;;;;;6.13;1.70;;;13.60;99.90;;;;;;5136940;27;20043;-76
2022/09/15 04:36:40;;;;;;;4.93;1.30;;;13.70;99.90;;;;;;5136711;27;20047;-76
2022/09/15 04:39:06;;;;;;;5.35;1.48;;;13.70;99.90;;;;;;5136622;27;20047;-77
2022/09/15 04:41:32;;;;;;;4.43;1.38;;;13.70;99.90;;;;;;5137062;27;20084;-77
2022/09/15 04:43:58;;;;;;;5.77;1.30;;;13.80;99.90;;;;;;5137116;27;20054;-77
2022/09/15 04:46:24;;;;;;;5.95;1.33;;;13.70;99.90;;;;;;5136836;27;20509;-76
2022/09/15 04:48:51;;;;;;;3.60;1.20;;;13.90;99.90;;;;;;5136727;27;20047;-77
2022/09/15 04:51:18;;;;;;;;;;;13.60;99.90;;;;;;5137058;27;20039;-77
2022/09/15 04:53:44;;;;;;;5.85;1.42;;;13.70;99.90;;;;;;5136629;27;20017;-76
2022/09/15 04:56:22;;;;;;;6.68;1.40;;;13.70;99.90;;;;;;5136634;27;20394;-78
2022/09/15 04:58:52;;;;;;;;;;;13.60;99.90;;;;;;5137194;27;20047;-77
2022/09/15 05:01:23;;;;;;;6.38;1.35;;;13.60;99.90;;;;;;5118340;27;20317;-76
2022/09/15 05:03:49;;;;;;;5.60;1.35;;;13.60;99.90;;;;;;5118133;27;20043;-78
2022/09/15 05:06:17;;;;;;;6.03;1.60;;;13.60;99.90;;;;;;5118178;27;20074;-77
2022/09/15 05:08:46;;;;;;;3.85;1.30;;;13.60;99.90;;;;;;5136000;27;20536;-77
2022/09/15 05:11:13;;;;;;;4.57;1.50;;;13.60;99.90;;;;;;5136305;27;20038;-76
2022/09/15 05:13:39;;;;;;;4.73;1.73;;;13.60;99.90;;;;;;5135956;27;20490;-77
2022/09/15 05:16:13;;;;;;;4.77;1.40;;;13.60;99.90;;;;;;5136040;27;20273;-77
2022/09/15 05:18:41;;;;;;;5.85;1.50;;;13.50;99.90;;;;;;5136199;27;20046;-77
2022/09/15 05:21:08;;;;;;;3.13;1.33;;;13.50;99.90;;;;;;5136030;27;20039;-76
2022/09/15 05:23:35;;;;;;;4.78;1.40;;;13.50;99.90;;;;;;5136173;27;20046;-76
2022/09/15 05:26:03;;;;;;;6.25;1.55;;;13.50;99.90;;;;;;5136229;27;20122;-76
2022/09/15 05:28:31;;;;;;;5.60;1.42;;;13.50;99.90;;;;;;5135967;27;20043;-77
2022/09/15 05:30:57;;;;;;;7.70;1.52;;;13.40;99.90;;;;;;5135924;27;20069;-76
2022/09/15 05:33:23;;;;;;;5.93;1.73;;;13.40;99.90;;;;;;5118098;27;20474;-76
2022/09/15 05:35:53;;;;;;;4.10;1.52;;;13.50;99.90;;;;;;5117747;27;20134;-77
2022/09/15 05:38:20;;;;;;;5.28;1.77;;;13.40;99.90;;;;;;5135628;27;20035;-77
2022/09/15 05:40:46;;;;;;;4.30;1.48;;;13.40;99.90;;;;;;5135891;27;20047;-76
2022/09/15 05:43:12;;;;;;;6.15;1.80;;;13.40;99.90;;;;;;5135361;27;20055;-76
2022/09/15 05:45:37;;;;;;;8.48;1.85;;;13.40;99.90;;;;;;5136126;27;20096;-76
2022/09/15 05:48:03;;;;;;;7.35;1.65;;;13.70;99.90;;;;;;5135271;27;20051;-76
2022/09/15 05:50:29;;;;;;;8.37;1.70;;;13.50;99.90;;;;;;5134933;27;20433;-77
2022/09/15 05:52:55;;;;;;;7.00;1.92;;;13.50;99.90;;;;;;5135632;27;20039;-76
2022/09/15 05:55:21;;;;;;;5.15;1.20;;;13.50;99.90;;;;;;5135444;27;20047;-77
2022/09/15 05:57:47;;;;;;;9.98;1.77;;;13.50;99.90;;;;;;5135362;27;20390;-77
2022/09/15 06:00:12;;;;;;;6.70;1.77;;;13.60;99.90;;;;;;5135314;27;20082;-76
2022/09/15 06:02:38;;;;;;;5.60;1.60;;;13.60;99.90;;;;;;5135844;27;20053;-76
2022/09/15 06:05:04;;;;;;;7.07;1.67;;;13.60;99.90;;;;;;5135231;27;20546;-76
2022/09/15 06:07:30;;;;;;;4.15;1.75;;;13.70;99.90;;;;;;5135360;27;20095;-76
2022/09/15 06:09:56;;;;;;;4.47;1.53;;;13.70;99.90;;;;;;5135190;27;20034;-77
2022/09/15 06:12:21;;;;;;;4.38;1.42;;;13.70;99.90;;;;;;5135079;27;20043;-77
2022/09/15 06:14:49;;;;;;;7.32;1.55;;;13.80;99.90;;;;;;5134996;27;20039;-77
2022/09/15 06:17:16;;;;;;;5.15;1.27;;;13.80;99.90;;;;;;5135015;27;20055;-76
2022/09/15 06:19:41;;;;;;;;;;;13.80;99.90;;;;;;5135182;27;20548;-77
2022/09/15 06:22:07;;;;;;;8.10;1.63;;;13.90;99.90;;;;;;5135236;27;19919;-77
2022/09/15 06:24:32;;;;;;;4.65;1.20;;;13.90;99.90;;;;;;5134601;27;20163;-76
2022/09/15 06:26:58;;;;;;;5.13;1.23;;;14.00;99.90;;;;;;5134923;27;20043;-77
2022/09/15 06:29:24;;;;;;;5.72;1.42;;;14.00;99.90;;;;;;5134537;27;20119;-77
2022/09/15 06:31:49;;;;;;;7.82;1.77;;;14.00;99.90;;;;;;5135168;27;20070;-77
2022/09/15 06:34:15;;;;;;;6.88;1.63;;;14.10;99.90;;;;;;5116540;28;20043;-77
2022/09/15 06:36:41;;;;;;;4.10;1.20;;;14.10;99.90;;;;;;5134804;27;20390;-77
2022/09/15 06:39:07;;;;;;;6.72;1.50;;;14.10;99.90;;;;;;5134757;27;20042;-77
2022/09/15 06:41:34;;;;;;;5.22;1.85;;;14.20;99.90;;;;;;5134510;27;20086;-77
2022/09/15 06:43:59;;;;;;;8.02;1.55;;;14.30;99.90;;;;;;5134428;27;20598;-76
2022/09/15 06:46:27;;;;;;;4.55;1.58;;;14.40;99.90;;;;;;5117295;28;20052;-76
2022/09/15 06:48:53;;;;;;;5.38;1.58;;;14.50;99.90;;;;;;5134651;28;20058;-77
2022/09/15 06:51:22;;;;;;;5.38;1.35;;;14.50;99.90;;;;;;5134851;28;20466;-76
2022/09/15 06:53:48;;;;;;;5.78;1.17;;;14.60;99.90;;;;;;5116659;28;20121;-76
2022/09/15 06:56:16;;;;;;;4.97;1.27;;;14.70;99.90;;;;;;5134718;28;20126;-77
2022/09/15 06:58:43;;;;;;;5.97;1.65;;;14.70;99.90;;;;;;5134742;28;20110;-77
2022/09/15 07:01:12;;;;;;;6.22;1.50;;;14.70;99.90;;;;;;5136349;27;20514;-76
2022/09/15 07:03:40;;;;;;;4.72;1.30;;;14.70;99.90;;;;;;5138754;27;20088;-75
2022/09/15 07:06:07;;;;;;;6.85;1.67;;;14.80;99.90;;;;;;5138685;27;20050;-77
2022/09/15 07:08:33;;;;;;;6.38;1.50;;;14.90;99.90;;;;;;5138696;27;20043;-77
2022/09/15 07:10:59;;;;;;;8.63;1.40;;;15.10;99.90;;;;;;5138483;27;20086;-76
2022/09/15 07:13:25;;;;;;;4.23;1.37;;;15.20;99.90;;;;;;5138543;27;20042;-76
2022/09/15 07:15:51;;;;;;;6.13;1.50;;;15.40;99.90;;;;;;5138490;27;20092;-77
2022/09/15 07:18:17;;;;;;;5.93;1.55;;;15.50;99.90;;;;;;5138480;27;20035;-76
2022/09/15 07:20:43;;;;;;;7.80;2.17;;;15.70;99.90;;;;;;5138439;27;20126;-77
2022/09/15 07:23:08;;;;;;;6.23;1.60;;;15.70;99.90;;;;;;5120299;27;20045;-76
2022/09/15 07:25:34;;;;;;;6.97;1.73;;;15.70;99.90;;;;;;5138317;27;20521;-76
2022/09/15 07:28:00;;;;;;;6.77;1.50;;;15.80;99.90;;;;;;5138364;27;20055;-76
2022/09/15 07:30:26;;;;;;;6.78;1.33;;;15.80;99.90;;;;;;5137951;27;20665;-75
2022/09/15 07:32:51;;;;;;;4.67;1.57;;;15.90;99.90;;;;;;5138216;27;20088;-77
2022/09/15 07:35:18;;;;;;;4.67;1.20;;;15.90;99.90;;;;;;5138528;27;20497;-76
2022/09/15 07:37:43;;;;;;;4.75;1.40;;;15.90;99.90;;;;;;5138138;27;20103;-76
2022/09/15 07:40:10;;;;;;;6.70;1.50;;;16.00;99.90;;;;;;5137910;27;20125;-77
2022/09/15 07:42:36;;;;;;;;;;;16.00;99.90;;;;;;5138232;27;20147;-76
2022/09/15 07:45:02;;;;;;;5.43;1.30;;;16.10;99.90;;;;;;5138020;27;19972;-77
2022/09/15 07:47:28;;;;;;;5.77;1.30;;;16.00;99.90;;;;;;5138040;27;20069;-76
2022/09/15 07:49:53;;;;;;;6.70;1.52;;;16.10;99.90;;;;;;5137953;27;20039;-77
2022/09/15 07:52:19;;;;;;;6.03;1.33;;;16.20;99.90;;;;;;5137873;27;20035;-75
2022/09/15 07:54:44;;;;;;;6.33;1.30;;;16.20;99.90;;;;;;5137783;27;20047;-75
2022/09/15 07:57:10;;;;;;;4.85;1.38;;;16.20;99.90;;;;;;5137744;27;20398;-77
2022/09/15 07:59:35;;;;;;;4.67;1.43;;;16.30;99.90;;;;;;5137729;27;20043;-77
2022/09/15 08:02:01;;;;;;;5.07;1.33;;;16.30;99.90;;;;;;5137715;27;20065;-76
2022/09/15 08:04:27;;;;;;;3.93;1.30;;;16.40;99.90;;;;;;5137956;27;20043;-76
2022/09/15 08:06:52;;;;;;;7.47;1.48;;;16.30;99.90;;;;;;5137327;27;20126;-76
2022/09/15 08:09:18;;;;;;;6.78;1.48;;;16.30;99.90;;;;;;5137514;27;20066;-76
2022/09/15 08:11:43;;;;;;;4.72;1.33;;;16.40;99.90;;;;;;5136944;27;20043;-75
2022/09/15 08:14:09;;;;;;;6.30;1.73;;;16.40;99.90;;;;;;5137476;27;20043;-76
2022/09/15 08:16:35;;;;;;;5.50;1.40;;;16.50;99.90;;;;;;5137419;27;20051;-76
2022/09/15 08:19:00;;;;;;;4.28;1.48;;;16.60;99.90;;;;;;5137330;27;20043;-77
2022/09/15 08:21:27;;;;;;;6.10;1.17;;;16.70;99.90;;;;;;5137568;27;20039;-77
2022/09/15 08:23:54;;;;;;;5.10;1.48;;;16.80;99.90;;;;;;5137276;27;20066;-77
2022/09/15 08:26:21;;;;;;;4.35;1.00;;;16.80;99.90;;;;;;5137080;27;20046;-76
2022/09/15 08:28:47;;;;;;;4.13;1.40;;;16.90;99.90;;;;;;5137202;27;20506;-77
2022/09/15 08:31:13;;;;;;;2.97;1.33;;;16.90;99.90;;;;;;5137267;27;20280;-77
2022/09/15 08:33:39;;;;;;;5.18;1.15;;;17.00;99.90;;;;;;5136867;27;20043;-77
2022/09/15 08:36:09;;;;;;;5.10;1.33;;;17.00;99.90;;;;;;5137051;27;20047;-77
2022/09/15 08:38:36;;;;;;;4.20;1.17;;;17.00;99.90;;;;;;5136961;27;20127;-76
2022/09/15 08:41:06;;;;;;;4.00;1.15;;;17.10;99.90;;;;;;5137210;27;20046;-76
2022/09/15 08:43:43;;;;;;;4.45;1.10;;;17.20;99.90;;;;;;5118434;27;20558;-76
2022/09/15 08:46:14;;;;;;;5.97;1.30;;;17.40;99.90;;;;;;5136858;27;20053;-78
2022/09/15 08:48:52;;;;;;;3.00;0.90;;;17.60;99.90;;;;;;5118527;27;20493;-77
2022/09/15 08:51:25;;;;;;;4.85;1.17;;;17.70;99.90;;;;;;5136714;27;20039;-76
2022/09/15 08:53:59;;;;;;;5.05;1.38;;;17.80;99.90;;;;;;5136706;27;20042;-76
2022/09/15 08:56:28;;;;;;;5.82;1.35;;;17.80;99.90;;;;;;5137025;27;20092;-77
2022/09/15 08:58:54;;;;;;;4.07;1.38;;;17.80;99.90;;;;;;5136551;27;20069;-76
2022/09/15 09:01:36;;;;;;;4.60;1.17;;;17.70;99.90;;;;;;5136431;27;20535;-78
2022/09/15 09:04:21;;;;;;;4.95;1.10;;;17.60;99.90;;;;;;5136469;27;20039;-77
2022/09/15 09:06:58;;;;;;;5.68;1.23;;;17.60;99.90;;;;;;5137048;27;20088;-78
2022/09/15 09:09:31;;;;;;;3.53;1.08;;;17.60;99.90;;;;;;5136655;27;20096;-78
2022/09/15 09:12:22;;;;;;;4.30;1.10;;;17.70;99.90;;;;;;5136112;27;20559;-78
2022/09/15 09:15:21;;;;;;;4.15;1.23;;;17.70;99.90;;;;;;5118789;27;20079;-78
2022/09/15 09:18:11;;;;;;;5.38;1.20;;;17.90;99.90;;;;;;5136504;27;20130;-78
2022/09/15 09:20:59;;;;;;;3.75;1.10;;;17.90;99.90;;;;;;5136158;27;20050;-77
2022/09/15 09:23:28;;;;;;;5.57;1.30;;;18.00;99.90;;;;;;5135459;27;20074;-78
2022/09/15 09:25:56;;;;;;;6.13;1.33;;;18.10;99.90;;;;;;5135511;27;20047;-77
2022/09/15 09:28:38;;;;;;;4.95;1.67;;;18.20;99.90;;;;;;5135992;27;20035;-78
2022/09/15 09:31:06;;;;;;;4.28;1.10;;;18.30;99.90;;;;;;5117672;27;20062;-78
2022/09/15 09:33:48;;;;;;;3.92;1.13;;;18.30;99.90;;;;;;5135821;27;20108;-78
2022/09/15 09:36:14;;;;;;;5.32;1.30;;;18.40;99.90;;;;;;5136237;27;20487;-78
2022/09/15 09:38:43;;;;;;;3.23;1.20;;;18.40;99.90;;;;;;5135881;27;20126;-77
2022/09/15 09:41:15;;;;;;;4.53;1.10;;;18.50;99.90;;;;;;5135689;27;20049;-78
2022/09/15 09:43:43;;;;;;;3.42;1.05;;;18.60;99.90;;;;;;5135184;27;20062;-77
2022/09/15 09:46:19;;;;;;;3.72;1.10;;;18.70;99.90;;;;;;5135587;27;20050;-77
2022/09/15 09:48:55;;;;;;;5.15;1.23;;;18.80;99.90;;;;;;5135961;27;20121;-78
2022/09/15 09:51:46;;;;;;;5.60;1.20;;;18.80;99.90;;;;;;5135656;27;20104;-77
2022/09/15 09:54:15;;;;;;;4.03;1.00;;;18.80;99.90;;;;;;5135175;27;20050;-78
2022/09/15 09:56:44;;;;;;;6.63;1.20;;;18.80;99.90;;;;;;5135372;27;20046;-78
2022/09/15 09:59:30;;;;;;;5.55;1.25;;;18.80;99.90;;;;;;5135407;27;20039;-77
2022/09/15 10:02:10;;;;;;;4.00;0.95;;;18.80;99.90;;;;;;5135493;27;20043;-77
2022/09/15 10:04:42;;;;;;;2.60;1.00;;;18.80;99.90;;;;;;5135164;27;20043;-76
2022/09/15 10:07:08;;;;;;;4.65;1.13;;;18.70;99.90;;;;;;5135250;27;20043;-78
2022/09/15 10:09:35;;;;;;;4.63;1.00;;;18.70;99.90;;;;;;5135279;27;20055;-78
2022/09/15 10:12:03;;;;;;;2.20;0.88;;;18.90;99.90;;;;;;5116760;27;20070;-78
2022/09/15 10:14:40;;;;;;;4.20;1.15;;;19.10;99.90;;;;;;5135167;27;20070;-78
2022/09/15 10:17:08;;;;;;;4.13;0.95;;;19.20;99.90;;;;;;5135010;27;20039;-77
2022/09/15 10:19:47;;;;;;;3.15;1.00;;;19.30;99.90;;;;;;5135755;27;20087;-77
2022/09/15 10:22:33;;;;;;;3.42;1.08;;;19.40;99.90;;;;;;5135147;27;20051;-78
2022/09/15 10:25:00;;;;;;;3.90;1.00;;;19.30;99.90;;;;;;5135103;27;20044;-78
2022/09/15 10:27:34;;;;;;;4.75;1.33;;;19.20;99.90;;;;;;5116592;27;20509;-78
2022/09/15 10:30:17;;;;;;;5.45;1.38;;;19.20;99.90;;;;;;5134819;27;20043;-77
2022/09/15 10:32:43;;;;;;;5.38;1.05;;;19.10;99.90;;;;;;5134724;27;20039;-77
2022/09/15 10:35:12;;;;;;;5.20;1.30;;;19.00;99.90;;;;;;5134404;27;20046;-78
2022/09/15 10:38:11;;;;;;;5.25;1.30;;;18.80;99.90;;;;;;5134759;27;20083;-78
2022/09/15 10:40:58;;;;;;;4.88;1.20;;;18.70;99.90;;;;;;5078884;27;20143;-78
2022/09/15 10:43:42;;;;;;;7.25;1.33;;;18.80;99.90;;;;;;5134699;27;20497;-77
2022/09/15 10:46:46;;;;;;;4.13;1.08;;;19.00;99.90;;;;;;5116337;28;20134;-77
2022/09/15 10:49:36;;;;;;;2.80;1.00;;;19.10;99.90;;;;;;5129955;28;20069;-77
2022/09/15 10:52:19;;;;;;;2.80;0.80;;;19.10;99.90;;;;;;5134447;28;20547;-78
2022/09/15 10:54:48;;;;;;;2.60;0.85;;;19.10;99.90;;;;;;5134522;28;20482;-77
2022/09/15 10:57:22;;;;;;;3.55;1.00;;;19.10;99.90;;;;;;5134577;28;20100;-78
2022/09/15 11:00:01;;;;;;;4.40;1.00;;;19.00;99.90;;;;;;5134679;28;20047;-77
2022/09/15 11:02:39;;;;;;;2.47;0.80;;;19.10;99.90;;;;;;5134954;28;20096;-78
2022/09/15 11:05:16;;;;;;;3.58;0.85;;;19.10;99.90;;;;;;5134642;28;20147;-77
2022/09/15 11:07:54;;;;;;;3.35;0.80;;;19.00;99.90;;;;;;5134964;28;20050;-77
2022/09/15 11:10:45;;;;;;;1.88;0.80;;;19.10;99.90;;;;;;5134497;28;20043;-77
2022/09/15 11:13:25;;;;;;;1.83;0.60;;;19.10;99.90;;;;;;5134607;28;20039;-77
2022/09/15 11:16:06;;;;;;;3.50;0.80;;;19.10;99.90;;;;;;5134420;28;20045;-78
2022/09/15 11:18:53;;;;;;;4.85;0.82;;;19.10;99.90;;;;;;5134857;28;20047;-77
2022/09/15 11:21:22;;;;;;;3.00;1.00;;;19.10;99.90;;;;;;5116068;28;20040;-77
2022/09/15 11:24:15;;;;;;;3.65;1.10;;;18.90;99.90;;;;;;5134348;28;20066;-78
2022/09/15 11:27:13;;;;;;;3.45;0.90;;;18.80;99.90;;;;;;5134334;28;20047;-77
2022/09/15 11:29:51;;;;;;;4.00;0.95;;;18.60;99.90;;;;;;5134504;28;20047;-77
2022/09/15 11:32:26;;;;;;;3.38;1.20;;;18.40;99.90;;;;;;5134045;28;20043;-78
2022/09/15 11:35:18;;;;;;;2.17;0.88;;;18.30;99.90;;;;;;5134737;28;20043;-78
2022/09/15 11:37:49;;;;;;;3.67;1.10;;;18.10;99.90;;;;;;5134205;28;20047;-77
2022/09/15 11:40:25;;;;;;;5.93;1.05;;;18.10;99.90;;;;;;5134226;28;20047;-77
2022/09/15 11:43:10;;;;;;;2.90;1.00;;;17.90;99.90;;;;;;5134200;27;20055;-77
2022/09/15 11:45:43;;;;;;;5.15;1.00;;;17.80;99.90;;;;;;5134139;28;20058;-77
2022/09/15 11:48:18;;;;;;;4.43;1.13;;;17.70;99.90;;;;;;5136112;27;20047;-77
2022/09/15 11:50:47;;;;;;;2.47;0.88;;;17.70;99.90;;;;;;5137757;27;20047;-77
2022/09/15 11:53:41;;;;;;;4.43;1.02;;;17.80;99.90;;;;;;5137696;27;20103;-78
2022/09/15 11:56:13;;;;;;;3.28;1.13;;;17.80;99.90;;;;;;5068413;27;20051;-77
2022/09/15 11:58:52;;;;;;;3.90;1.10;;;18.00;99.90;;;;;;5138071;27;20090;-78
2022/09/15 12:01:30;;;;;;;3.45;1.05;;;18.00;99.90;;;;;;5137488;27;20542;-78
2022/09/15 12:04:11;;;;;;;3.38;1.00;;;18.00;99.90;;;;;;5137660;27;20035;-78
2022/09/15 12:06:59;;;;;;;4.28;0.95;;;18.00;99.90;;;;;;5138048;27;20387;-78
2022/09/15 12:09:24;;;;;;;2.08;0.85;;;17.90;99.90;;;;;;5137826;27;20088;-77
2022/09/15 12:11:59;;;;;;;4.60;1.23;;;17.80;99.90;;;;;;5137426;27;20051;-78
2022/09/15 12:14:33;;;;;;;4.50;1.13;;;17.70;99.90;;;;;;5137467;27;20043;-77
2022/09/15 12:17:00;;;;;;;4.13;1.25;;;17.60;99.90;;;;;;5138019;27;20058;-78
2022/09/15 12:19:34;;;;;;;4.05;1.23;;;17.70;99.90;;;;;;5137358;27;20092;-77
2022/09/15 12:22:27;;;;;;;4.22;1.33;;;17.70;99.90;;;;;;5137318;27;20047;-78
2022/09/15 12:25:01;;;;;;;3.90;1.10;;;17.70;99.90;;;;;;5137695;27;20054;-77
2022/09/15 12:27:27;;;;;;;3.70;1.02;;;17.90;99.90;;;;;;5137874;27;20483;-77
2022/09/15 12:29:58;;;;;;;3.63;0.80;;;18.20;99.90;;;;;;5137132;27;20131;-78
2022/09/15 12:32:33;;;;;;;2.40;0.77;;;18.40;99.90;;;;;;5137150;27;20078;-78
2022/09/15 12:35:19;;;;;;;3.97;1.00;;;18.50;99.90;;;;;;5137109;27;20128;-77
2022/09/15 12:37:55;;;;;;;7.45;1.10;;;18.80;99.90;;;;;;5118893;27;20054;-77
2022/09/15 12:40:55;;;;;;;2.25;0.90;;;18.90;99.90;;;;;;5137338;27;20425;-77
2022/09/15 12:43:22;;;;;;;3.45;1.20;;;19.10;99.90;;;;;;5136426;27;20047;-78
2022/09/15 12:46:01;;;;;;;3.50;1.00;;;19.20;99.90;;;;;;5118741;27;20050;-77
2022/09/15 12:48:32;;;;;;;4.38;1.20;;;19.50;99.90;;;;;;5136785;27;20129;-78
2022/09/15 12:51:03;;;;;;;2.20;0.80;;;19.60;99.90;;;;;;5136796;27;20053;-78
2022/09/15 12:53:47;;;;;;;4.50;1.00;;;19.50;99.90;;;;;;5136714;27;20051;-76
2022/09/15 12:56:30;;;;;;;2.55;0.70;;;19.40;99.90;;;;;;5136639;27;20458;-77
2022/09/15 12:59:02;;;;;;;3.78;0.85;;;19.20;99.90;;;;;;5136345;27;20047;-77
2022/09/15 13:01:45;;;;;;;5.00;0.77;;;19.10;99.90;;;;;;5136669;27;20074;-77
2022/09/15 13:04:23;;;;;;;4.50;0.90;;;19.10;99.90;;;;;;5136672;27;20438;-78
2022/09/15 13:07:13;;;;;;;2.80;0.93;;;19.20;99.90;;;;;;5136569;27;20100;-78
2022/09/15 13:09:44;;;;;;;3.25;1.08;;;19.40;99.90;;;;;;5136393;27;20062;-78
2022/09/15 13:12:16;;;;;;;2.63;0.70;;;19.60;99.90;;;;;;5136273;27;20046;-78